Portada
METAR-TAF:

METAR-TAF

Aeropuertos :

Aeropuerto de Pau-Pirineos

Pau, Francia

latitud: 43-23N, longitud: 000-25W, altitud: 188 m

Observación

El informe se hizo hace 33 minutos, a las 08:30 UTC
Viento 3 kt del este-sureste
Temperatura 11°C
Humedad 50%
Presión 1031 hPa
Visibilidad 10 km o más
sin nubes por debajo de 1500 m y sin presencia de cumulonimbus.

METAR: LFBP 220830Z AUTO 12003KT CAVOK 11/01 Q1031 NOSIG

Hora: 10:03 (09:03 UTC)

Pronóstico

El informe se hizo hace 4 horas y 3 minutos, a las 05:00 UTC
Pronóstico válido del 22 a las 06 UTC al 23 a las 06 UTC
Viento 5 kt del este-sureste
Visibilidad 10 km o más
sin nubes por debajo de 1500 m y sin presencia de cumulonimbus.

TAF: LFBP 220500Z 2206/2306 12005KT CAVOK

Observaciones y pronósticos meteorológicos de más de 4000 aeropuertos (mensajes METAR y TAF).

Los puntos amarillos y rojos representan las estaciones disponibles.

Ponga el ratón en el punto deseado para ver el nombre de la estación.

Haga clic para ver las observaciones y los pronósticos meteorológicos.

Para cambiar el mapa : haga clic en los botones verdes con una cruz de color negro para hacer un zoom, en el botón verde con un guión para alejar o en las flechas verdes para mapas adyacentes.


METAR-TAF: